sensor_id;sensor_type;location;lat;lon;timestamp;P1;durP1;ratioP1;P2;durP2;ratioP2
30707;SDS011;17458;48.958;8.284;2023-08-12T00:02:40;8.35;;;4.30;;
30707;SDS011;17458;48.958;8.284;2023-08-12T00:05:25;8.63;;;3.83;;
30707;SDS011;17458;48.958;8.284;2023-08-12T00:08:09;8.10;;;4.22;;
30707;SDS011;17458;48.958;8.284;2023-08-12T00:10:53;9.60;;;4.75;;
30707;SDS011;17458;48.958;8.284;2023-08-12T00:13:37;7.25;;;4.70;;
30707;SDS011;17458;48.958;8.284;2023-08-12T00:16:21;11.23;;;4.93;;
30707;SDS011;17458;48.958;8.284;2023-08-12T00:19:04;6.00;;;4.10;;
30707;SDS011;17458;48.958;8.284;2023-08-12T00:21:48;5.53;;;4.50;;
30707;SDS011;17458;48.958;8.284;2023-08-12T00:24:32;9.00;;;4.18;;
30707;SDS011;17458;48.958;8.284;2023-08-12T00:27:16;6.25;;;4.22;;
30707;SDS011;17458;48.958;8.284;2023-08-12T00:30:00;12.85;;;4.35;;
30707;SDS011;17458;48.958;8.284;2023-08-12T00:32:46;5.80;;;3.97;;
30707;SDS011;17458;48.958;8.284;2023-08-12T00:35:30;6.82;;;4.05;;
30707;SDS011;17458;48.958;8.284;2023-08-12T00:38:14;7.57;;;4.75;;
30707;SDS011;17458;48.958;8.284;2023-08-12T00:40:58;6.75;;;3.58;;
30707;SDS011;17458;48.958;8.284;2023-08-12T00:43:42;5.80;;;4.15;;
30707;SDS011;17458;48.958;8.284;2023-08-12T00:46:26;7.57;;;4.43;;
30707;SDS011;17458;48.958;8.284;2023-08-12T00:49:10;5.40;;;4.13;;
30707;SDS011;17458;48.958;8.284;2023-08-12T00:51:56;7.45;;;4.55;;
30707;SDS011;17458;48.958;8.284;2023-08-12T00:54:40;6.70;;;4.40;;
30707;SDS011;17458;48.958;8.284;2023-08-12T00:57:23;6.03;;;3.95;;
30707;SDS011;17458;48.958;8.284;2023-08-12T01:00:08;7.63;;;4.72;;
30707;SDS011;17458;48.958;8.284;2023-08-12T01:02:52;5.53;;;4.05;;
30707;SDS011;17458;48.958;8.284;2023-08-12T01:05:37;10.93;;;3.75;;
30707;SDS011;17458;48.958;8.284;2023-08-12T01:08:21;6.78;;;3.83;;
30707;SDS011;17458;48.958;8.284;2023-08-12T01:11:13;7.78;;;3.97;;
30707;SDS011;17458;48.958;8.284;2023-08-12T01:14:03;10.63;;;4.63;;
30707;SDS011;17458;48.958;8.284;2023-08-12T01:17:06;5.05;;;4.05;;
30707;SDS011;17458;48.958;8.284;2023-08-12T01:19:55;8.20;;;4.10;;
30707;SDS011;17458;48.958;8.284;2023-08-12T01:22:40;8.73;;;3.80;;
30707;SDS011;17458;48.958;8.284;2023-08-12T01:25:28;5.22;;;4.40;;
30707;SDS011;17458;48.958;8.284;2023-08-12T01:28:11;4.90;;;4.18;;
30707;SDS011;17458;48.958;8.284;2023-08-12T01:30:56;5.38;;;3.88;;
30707;SDS011;17458;48.958;8.284;2023-08-12T01:33:49;6.28;;;4.50;;
30707;SDS011;17458;48.958;8.284;2023-08-12T01:36:40;9.00;;;4.68;;
30707;SDS011;17458;48.958;8.284;2023-08-12T01:39:30;3.80;;;3.50;;
30707;SDS011;17458;48.958;8.284;2023-08-12T01:42:17;5.95;;;4.22;;
30707;SDS011;17458;48.958;8.284;2023-08-12T01:45:03;8.07;;;4.00;;
30707;SDS011;17458;48.958;8.284;2023-08-12T01:47:47;9.13;;;4.13;;
30707;SDS011;17458;48.958;8.284;2023-08-12T01:50:34;4.85;;;3.75;;
30707;SDS011;17458;48.958;8.284;2023-08-12T01:53:18;4.97;;;3.78;;
30707;SDS011;17458;48.958;8.284;2023-08-12T01:56:02;6.55;;;4.07;;
30707;SDS011;17458;48.958;8.284;2023-08-12T01:58:46;8.88;;;4.25;;
30707;SDS011;17458;48.958;8.284;2023-08-12T02:01:30;6.82;;;4.25;;
30707;SDS011;17458;48.958;8.284;2023-08-12T02:04:14;4.93;;;3.42;;
30707;SDS011;17458;48.958;8.284;2023-08-12T02:06:58;4.20;;;3.70;;
30707;SDS011;17458;48.958;8.284;2023-08-12T02:09:42;4.55;;;3.65;;
30707;SDS011;17458;48.958;8.284;2023-08-12T02:12:26;6.88;;;3.53;;
30707;SDS011;17458;48.958;8.284;2023-08-12T02:15:10;6.00;;;3.80;;
30707;SDS011;17458;48.958;8.284;2023-08-12T02:17:54;7.05;;;3.80;;
30707;SDS011;17458;48.958;8.284;2023-08-12T02:20:40;16.02;;;4.50;;
30707;SDS011;17458;48.958;8.284;2023-08-12T02:23:24;8.43;;;3.95;;
30707;SDS011;17458;48.958;8.284;2023-08-12T02:26:10;10.70;;;4.15;;
30707;SDS011;17458;48.958;8.284;2023-08-12T02:28:54;5.55;;;4.88;;
30707;SDS011;17458;48.958;8.284;2023-08-12T02:31:37;4.38;;;3.97;;
30707;SDS011;17458;48.958;8.284;2023-08-12T02:34:21;12.18;;;5.40;;
30707;SDS011;17458;48.958;8.284;2023-08-12T02:37:05;9.35;;;4.30;;
30707;SDS011;17458;48.958;8.284;2023-08-12T02:39:49;10.48;;;3.90;;
30707;SDS011;17458;48.958;8.284;2023-08-12T02:42:33;8.45;;;4.43;;
30707;SDS011;17458;48.958;8.284;2023-08-12T02:45:17;8.30;;;3.75;;
30707;SDS011;17458;48.958;8.284;2023-08-12T02:48:01;4.22;;;3.83;;
30707;SDS011;17458;48.958;8.284;2023-08-12T02:50:45;4.70;;;3.85;;
30707;SDS011;17458;48.958;8.284;2023-08-12T02:53:29;8.32;;;4.20;;
30707;SDS011;17458;48.958;8.284;2023-08-12T02:56:13;7.55;;;4.43;;
30707;SDS011;17458;48.958;8.284;2023-08-12T02:58:57;11.85;;;4.15;;
30707;SDS011;17458;48.958;8.284;2023-08-12T03:01:41;7.65;;;4.30;;
30707;SDS011;17458;48.958;8.284;2023-08-12T03:04:25;6.90;;;4.43;;
30707;SDS011;17458;48.958;8.284;2023-08-12T03:07:10;5.07;;;4.50;;
30707;SDS011;17458;48.958;8.284;2023-08-12T03:09:54;5.18;;;4.07;;
30707;SDS011;17458;48.958;8.284;2023-08-12T03:12:39;6.57;;;3.65;;
30707;SDS011;17458;48.958;8.284;2023-08-12T03:15:23;4.85;;;4.13;;
30707;SDS011;17458;48.958;8.284;2023-08-12T03:18:07;11.20;;;4.20;;
30707;SDS011;17458;48.958;8.284;2023-08-12T03:20:51;6.18;;;3.83;;
30707;SDS011;17458;48.958;8.284;2023-08-12T03:23:37;6.18;;;3.47;;
30707;SDS011;17458;48.958;8.284;2023-08-12T03:26:23;4.50;;;3.72;;
30707;SDS011;17458;48.958;8.284;2023-08-12T03:29:09;6.80;;;4.38;;
30707;SDS011;17458;48.958;8.284;2023-08-12T03:31:56;4.07;;;3.30;;
30707;SDS011;17458;48.958;8.284;2023-08-12T03:34:41;4.05;;;3.25;;
30707;SDS011;17458;48.958;8.284;2023-08-12T03:37:27;14.70;;;4.22;;
30707;SDS011;17458;48.958;8.284;2023-08-12T03:40:13;4.25;;;3.13;;
30707;SDS011;17458;48.958;8.284;2023-08-12T03:42:57;9.02;;;4.43;;
30707;SDS011;17458;48.958;8.284;2023-08-12T03:45:43;4.25;;;3.47;;
30707;SDS011;17458;48.958;8.284;2023-08-12T03:48:30;5.60;;;3.42;;
30707;SDS011;17458;48.958;8.284;2023-08-12T03:51:15;11.52;;;4.05;;
30707;SDS011;17458;48.958;8.284;2023-08-12T03:53:59;4.53;;;3.13;;
30707;SDS011;17458;48.958;8.284;2023-08-12T03:56:45;4.90;;;3.20;;
30707;SDS011;17458;48.958;8.284;2023-08-12T03:59:29;4.93;;;3.40;;
30707;SDS011;17458;48.958;8.284;2023-08-12T04:02:14;6.53;;;4.25;;
30707;SDS011;17458;48.958;8.284;2023-08-12T04:04:59;4.55;;;3.22;;
30707;SDS011;17458;48.958;8.284;2023-08-12T04:07:42;14.52;;;3.67;;
30707;SDS011;17458;48.958;8.284;2023-08-12T04:10:27;3.67;;;2.92;;
30707;SDS011;17458;48.958;8.284;2023-08-12T04:13:11;5.97;;;2.92;;
30707;SDS011;17458;48.958;8.284;2023-08-12T04:15:55;4.75;;;3.85;;
30707;SDS011;17458;48.958;8.284;2023-08-12T04:18:39;5.93;;;4.13;;
30707;SDS011;17458;48.958;8.284;2023-08-12T04:21:23;6.57;;;3.80;;
30707;SDS011;17458;48.958;8.284;2023-08-12T04:24:07;8.13;;;3.13;;
30707;SDS011;17458;48.958;8.284;2023-08-12T04:26:51;6.07;;;3.40;;
30707;SDS011;17458;48.958;8.284;2023-08-12T04:29:36;12.70;;;3.55;;
30707;SDS011;17458;48.958;8.284;2023-08-12T04:32:20;7.78;;;3.47;;
30707;SDS011;17458;48.958;8.284;2023-08-12T04:35:04;5.22;;;3.88;;
30707;SDS011;17458;48.958;8.284;2023-08-12T04:37:49;5.93;;;3.70;;
30707;SDS011;17458;48.958;8.284;2023-08-12T04:40:33;4.70;;;3.55;;
30707;SDS011;17458;48.958;8.284;2023-08-12T04:43:17;5.43;;;4.43;;
30707;SDS011;17458;48.958;8.284;2023-08-12T04:46:01;7.82;;;4.30;;
30707;SDS011;17458;48.958;8.284;2023-08-12T04:48:46;5.25;;;3.67;;
30707;SDS011;17458;48.958;8.284;2023-08-12T04:51:31;8.13;;;3.78;;
30707;SDS011;17458;48.958;8.284;2023-08-12T04:54:15;8.05;;;4.80;;
30707;SDS011;17458;48.958;8.284;2023-08-12T04:57:00;4.45;;;3.70;;
30707;SDS011;17458;48.958;8.284;2023-08-12T04:59:44;4.03;;;3.50;;
30707;SDS011;17458;48.958;8.284;2023-08-12T05:02:29;4.40;;;3.92;;
30707;SDS011;17458;48.958;8.284;2023-08-12T05:05:14;5.80;;;4.65;;
30707;SDS011;17458;48.958;8.284;2023-08-12T05:07:58;12.68;;;3.95;;
30707;SDS011;17458;48.958;8.284;2023-08-12T05:10:42;9.02;;;3.78;;
30707;SDS011;17458;48.958;8.284;2023-08-12T05:13:28;4.88;;;3.75;;
30707;SDS011;17458;48.958;8.284;2023-08-12T05:16:13;8.55;;;4.22;;
30707;SDS011;17458;48.958;8.284;2023-08-12T05:18:57;13.40;;;6.15;;
30707;SDS011;17458;48.958;8.284;2023-08-12T05:21:41;6.75;;;4.90;;
30707;SDS011;17458;48.958;8.284;2023-08-12T05:24:25;6.72;;;4.72;;
30707;SDS011;17458;48.958;8.284;2023-08-12T05:27:09;6.47;;;4.20;;
30707;SDS011;17458;48.958;8.284;2023-08-12T05:29:55;6.50;;;4.60;;
30707;SDS011;17458;48.958;8.284;2023-08-12T05:32:39;8.10;;;5.57;;
30707;SDS011;17458;48.958;8.284;2023-08-12T05:35:26;6.70;;;5.00;;
30707;SDS011;17458;48.958;8.284;2023-08-12T05:38:12;11.88;;;4.72;;
30707;SDS011;17458;48.958;8.284;2023-08-12T05:40:58;4.70;;;3.72;;
30707;SDS011;17458;48.958;8.284;2023-08-12T05:43:54;9.27;;;3.65;;
30707;SDS011;17458;48.958;8.284;2023-08-12T05:46:38;7.22;;;3.92;;
30707;SDS011;17458;48.958;8.284;2023-08-12T05:49:23;12.75;;;3.90;;
30707;SDS011;17458;48.958;8.284;2023-08-12T05:52:07;4.85;;;4.20;;
30707;SDS011;17458;48.958;8.284;2023-08-12T05:54:51;7.43;;;3.70;;
30707;SDS011;17458;48.958;8.284;2023-08-12T05:57:35;4.80;;;3.50;;
30707;SDS011;17458;48.958;8.284;2023-08-12T06:00:19;6.40;;;3.92;;
30707;SDS011;17458;48.958;8.284;2023-08-12T06:03:03;6.35;;;3.55;;
30707;SDS011;17458;48.958;8.284;2023-08-12T06:05:47;5.95;;;3.58;;
30707;SDS011;17458;48.958;8.284;2023-08-12T06:08:32;7.45;;;4.05;;
30707;SDS011;17458;48.958;8.284;2023-08-12T06:11:15;8.43;;;5.28;;
30707;SDS011;17458;48.958;8.284;2023-08-12T06:13:59;9.07;;;4.32;;
30707;SDS011;17458;48.958;8.284;2023-08-12T06:16:43;6.10;;;4.63;;
30707;SDS011;17458;48.958;8.284;2023-08-12T06:19:27;5.68;;;3.72;;
30707;SDS011;17458;48.958;8.284;2023-08-12T06:22:11;9.95;;;3.72;;
30707;SDS011;17458;48.958;8.284;2023-08-12T06:24:58;6.80;;;4.07;;
30707;SDS011;17458;48.958;8.284;2023-08-12T06:27:42;4.38;;;3.50;;
30707;SDS011;17458;48.958;8.284;2023-08-12T06:30:27;9.45;;;3.85;;
30707;SDS011;17458;48.958;8.284;2023-08-12T06:33:11;5.90;;;3.92;;
30707;SDS011;17458;48.958;8.284;2023-08-12T06:35:55;5.45;;;4.47;;
30707;SDS011;17458;48.958;8.284;2023-08-12T06:38:39;5.93;;;3.58;;
30707;SDS011;17458;48.958;8.284;2023-08-12T06:41:29;9.95;;;4.72;;
30707;SDS011;17458;48.958;8.284;2023-08-12T06:44:12;10.23;;;4.03;;
30707;SDS011;17458;48.958;8.284;2023-08-12T06:47:05;6.88;;;4.00;;
30707;SDS011;17458;48.958;8.284;2023-08-12T06:49:49;6.70;;;4.03;;
30707;SDS011;17458;48.958;8.284;2023-08-12T06:52:33;6.60;;;4.25;;
30707;SDS011;17458;48.958;8.284;2023-08-12T06:55:17;12.85;;;3.95;;
30707;SDS011;17458;48.958;8.284;2023-08-12T06:58:01;4.63;;;3.83;;
30707;SDS011;17458;48.958;8.284;2023-08-12T07:00:46;12.90;;;4.15;;
30707;SDS011;17458;48.958;8.284;2023-08-12T07:03:30;5.78;;;3.90;;
30707;SDS011;17458;48.958;8.284;2023-08-12T07:06:14;3.83;;;3.00;;
30707;SDS011;17458;48.958;8.284;2023-08-12T07:08:59;6.53;;;3.25;;
30707;SDS011;17458;48.958;8.284;2023-08-12T07:11:42;7.75;;;3.67;;
30707;SDS011;17458;48.958;8.284;2023-08-12T07:14:26;5.72;;;3.92;;
30707;SDS011;17458;48.958;8.284;2023-08-12T07:17:11;9.50;;;3.63;;
30707;SDS011;17458;48.958;8.284;2023-08-12T07:19:55;10.93;;;4.25;;
30707;SDS011;17458;48.958;8.284;2023-08-12T07:22:39;11.07;;;4.05;;
30707;SDS011;17458;48.958;8.284;2023-08-12T07:25:23;5.78;;;3.50;;
30707;SDS011;17458;48.958;8.284;2023-08-12T07:28:07;6.38;;;3.35;;
30707;SDS011;17458;48.958;8.284;2023-08-12T07:30:51;4.63;;;3.00;;
30707;SDS011;17458;48.958;8.284;2023-08-12T07:33:36;6.60;;;3.78;;
30707;SDS011;17458;48.958;8.284;2023-08-12T07:36:20;8.18;;;4.35;;
30707;SDS011;17458;48.958;8.284;2023-08-12T07:39:04;6.40;;;3.95;;
30707;SDS011;17458;48.958;8.284;2023-08-12T07:41:48;7.65;;;4.10;;
30707;SDS011;17458;48.958;8.284;2023-08-12T07:44:32;4.90;;;3.30;;
30707;SDS011;17458;48.958;8.284;2023-08-12T07:47:16;9.32;;;4.22;;
30707;SDS011;17458;48.958;8.284;2023-08-12T07:50:00;6.90;;;4.22;;
30707;SDS011;17458;48.958;8.284;2023-08-12T07:52:44;6.05;;;3.50;;
30707;SDS011;17458;48.958;8.284;2023-08-12T07:55:28;5.90;;;3.38;;
30707;SDS011;17458;48.958;8.284;2023-08-12T07:58:13;7.55;;;3.72;;
30707;SDS011;17458;48.958;8.284;2023-08-12T08:00:57;6.18;;;3.50;;
30707;SDS011;17458;48.958;8.284;2023-08-12T08:03:41;8.25;;;4.13;;
30707;SDS011;17458;48.958;8.284;2023-08-12T08:06:25;8.18;;;3.25;;
30707;SDS011;17458;48.958;8.284;2023-08-12T08:09:09;7.93;;;3.33;;
30707;SDS011;17458;48.958;8.284;2023-08-12T08:11:54;9.43;;;3.97;;
30707;SDS011;17458;48.958;8.284;2023-08-12T08:14:38;7.47;;;3.55;;
30707;SDS011;17458;48.958;8.284;2023-08-12T08:17:22;5.97;;;3.28;;
30707;SDS011;17458;48.958;8.284;2023-08-12T08:20:06;8.95;;;3.30;;
30707;SDS011;17458;48.958;8.284;2023-08-12T08:22:50;6.05;;;3.38;;
30707;SDS011;17458;48.958;8.284;2023-08-12T08:25:35;9.95;;;3.63;;
30707;SDS011;17458;48.958;8.284;2023-08-12T08:28:19;7.03;;;2.75;;
30707;SDS011;17458;48.958;8.284;2023-08-12T08:31:03;10.48;;;3.67;;
30707;SDS011;17458;48.958;8.284;2023-08-12T08:33:47;5.10;;;3.17;;
30707;SDS011;17458;48.958;8.284;2023-08-12T08:36:31;8.25;;;3.13;;
30707;SDS011;17458;48.958;8.284;2023-08-12T08:39:15;8.20;;;3.22;;
30707;SDS011;17458;48.958;8.284;2023-08-12T08:42:00;5.70;;;3.47;;
30707;SDS011;17458;48.958;8.284;2023-08-12T08:44:46;7.00;;;3.95;;
30707;SDS011;17458;48.958;8.284;2023-08-12T08:47:37;7.07;;;3.05;;
30707;SDS011;17458;48.958;8.284;2023-08-12T08:50:21;5.50;;;3.08;;
30707;SDS011;17458;48.958;8.284;2023-08-12T08:53:06;5.25;;;3.22;;
30707;SDS011;17458;48.958;8.284;2023-08-12T08:55:50;7.32;;;3.83;;
30707;SDS011;17458;48.958;8.284;2023-08-12T08:58:37;7.85;;;3.38;;
30707;SDS011;17458;48.958;8.284;2023-08-12T09:01:22;7.18;;;2.90;;
30707;SDS011;17458;48.958;8.284;2023-08-12T09:04:07;6.00;;;3.10;;
30707;SDS011;17458;48.958;8.284;2023-08-12T09:06:52;11.35;;;3.70;;
30707;SDS011;17458;48.958;8.284;2023-08-12T09:09:38;4.68;;;3.17;;
30707;SDS011;17458;48.958;8.284;2023-08-12T09:12:23;13.05;;;3.05;;
30707;SDS011;17458;48.958;8.284;2023-08-12T09:15:08;14.82;;;3.42;;
30707;SDS011;17458;48.958;8.284;2023-08-12T09:17:53;5.72;;;2.97;;
30707;SDS011;17458;48.958;8.284;2023-08-12T09:20:37;5.90;;;3.33;;
30707;SDS011;17458;48.958;8.284;2023-08-12T09:23:21;8.27;;;3.03;;
30707;SDS011;17458;48.958;8.284;2023-08-12T09:26:16;6.57;;;3.38;;
30707;SDS011;17458;48.958;8.284;2023-08-12T09:29:01;4.38;;;3.17;;
30707;SDS011;17458;48.958;8.284;2023-08-12T09:31:46;6.43;;;2.83;;
30707;SDS011;17458;48.958;8.284;2023-08-12T09:34:30;8.20;;;2.83;;
30707;SDS011;17458;48.958;8.284;2023-08-12T09:37:14;5.35;;;3.17;;
30707;SDS011;17458;48.958;8.284;2023-08-12T09:39:58;6.00;;;2.80;;
30707;SDS011;17458;48.958;8.284;2023-08-12T09:42:45;4.55;;;2.90;;
30707;SDS011;17458;48.958;8.284;2023-08-12T09:45:30;5.63;;;2.83;;
30707;SDS011;17458;48.958;8.284;2023-08-12T09:48:16;7.30;;;4.22;;
30707;SDS011;17458;48.958;8.284;2023-08-12T09:51:01;5.80;;;3.45;;
30707;SDS011;17458;48.958;8.284;2023-08-12T09:53:47;3.60;;;2.55;;
30707;SDS011;17458;48.958;8.284;2023-08-12T09:56:33;5.90;;;2.90;;
30707;SDS011;17458;48.958;8.284;2023-08-12T09:59:21;9.18;;;3.53;;
30707;SDS011;17458;48.958;8.284;2023-08-12T10:02:06;8.98;;;3.97;;
30707;SDS011;17458;48.958;8.284;2023-08-12T10:04:51;5.80;;;3.40;;
30707;SDS011;17458;48.958;8.284;2023-08-12T10:07:39;9.98;;;3.30;;
30707;SDS011;17458;48.958;8.284;2023-08-12T10:10:24;6.63;;;3.50;;
30707;SDS011;17458;48.958;8.284;2023-08-12T10:13:09;6.25;;;3.00;;
30707;SDS011;17458;48.958;8.284;2023-08-12T10:15:54;7.90;;;3.58;;
30707;SDS011;17458;48.958;8.284;2023-08-12T10:18:39;6.30;;;3.00;;
30707;SDS011;17458;48.958;8.284;2023-08-12T10:21:24;8.38;;;3.00;;
30707;SDS011;17458;48.958;8.284;2023-08-12T10:24:10;5.07;;;2.70;;
30707;SDS011;17458;48.958;8.284;2023-08-12T10:26:56;4.10;;;2.78;;
30707;SDS011;17458;48.958;8.284;2023-08-12T10:29:42;5.28;;;2.85;;
30707;SDS011;17458;48.958;8.284;2023-08-12T10:32:27;4.70;;;2.90;;
30707;SDS011;17458;48.958;8.284;2023-08-12T10:35:13;7.32;;;2.78;;
30707;SDS011;17458;48.958;8.284;2023-08-12T10:37:57;4.40;;;2.92;;
30707;SDS011;17458;48.958;8.284;2023-08-12T10:40:41;11.07;;;3.20;;
30707;SDS011;17458;48.958;8.284;2023-08-12T10:43:26;8.57;;;3.35;;
30707;SDS011;17458;48.958;8.284;2023-08-12T10:46:20;5.97;;;3.72;;
30707;SDS011;17458;48.958;8.284;2023-08-12T10:49:09;7.65;;;3.63;;
30707;SDS011;17458;48.958;8.284;2023-08-12T10:51:54;8.52;;;3.17;;
30707;SDS011;17458;48.958;8.284;2023-08-12T10:54:39;5.90;;;3.40;;
30707;SDS011;17458;48.958;8.284;2023-08-12T10:57:35;4.47;;;3.33;;
30707;SDS011;17458;48.958;8.284;2023-08-12T11:00:25;13.60;;;3.47;;
30707;SDS011;17458;48.958;8.284;2023-08-12T11:03:10;5.25;;;3.50;;
30707;SDS011;17458;48.958;8.284;2023-08-12T11:05:54;9.13;;;3.78;;
30707;SDS011;17458;48.958;8.284;2023-08-12T11:08:46;5.68;;;3.72;;
30707;SDS011;17458;48.958;8.284;2023-08-12T11:11:39;7.95;;;4.05;;
30707;SDS011;17458;48.958;8.284;2023-08-12T11:14:23;8.55;;;3.10;;
30707;SDS011;17458;48.958;8.284;2023-08-12T11:17:13;9.07;;;3.70;;
30707;SDS011;17458;48.958;8.284;2023-08-12T11:19:58;6.60;;;5.03;;
30707;SDS011;17458;48.958;8.284;2023-08-12T11:22:43;5.65;;;4.72;;
30707;SDS011;17458;48.958;8.284;2023-08-12T11:25:28;9.93;;;3.95;;
30707;SDS011;17458;48.958;8.284;2023-08-12T11:28:13;7.53;;;5.07;;
30707;SDS011;17458;48.958;8.284;2023-08-12T11:30:56;11.52;;;4.35;;
30707;SDS011;17458;48.958;8.284;2023-08-12T11:33:40;5.78;;;4.38;;
30707;SDS011;17458;48.958;8.284;2023-08-12T11:36:25;7.13;;;4.30;;
30707;SDS011;17458;48.958;8.284;2023-08-12T11:39:09;6.63;;;4.38;;
30707;SDS011;17458;48.958;8.284;2023-08-12T11:41:53;13.13;;;3.75;;
30707;SDS011;17458;48.958;8.284;2023-08-12T11:44:39;8.50;;;4.70;;
30707;SDS011;17458;48.958;8.284;2023-08-12T11:47:24;7.07;;;4.13;;
30707;SDS011;17458;48.958;8.284;2023-08-12T11:50:09;10.35;;;4.60;;
30707;SDS011;17458;48.958;8.284;2023-08-12T11:52:55;13.57;;;4.25;;
30707;SDS011;17458;48.958;8.284;2023-08-12T11:55:39;10.10;;;3.92;;
30707;SDS011;17458;48.958;8.284;2023-08-12T11:58:24;6.63;;;4.25;;
30707;SDS011;17458;48.958;8.284;2023-08-12T12:01:08;9.60;;;3.83;;
30707;SDS011;17458;48.958;8.284;2023-08-12T12:03:53;13.88;;;4.53;;
30707;SDS011;17458;48.958;8.284;2023-08-12T12:06:38;13.23;;;5.13;;
30707;SDS011;17458;48.958;8.284;2023-08-12T12:09:22;8.82;;;4.22;;
30707;SDS011;17458;48.958;8.284;2023-08-12T12:12:09;11.25;;;4.05;;
30707;SDS011;17458;48.958;8.284;2023-08-12T12:14:53;7.85;;;4.13;;
30707;SDS011;17458;48.958;8.284;2023-08-12T12:17:39;5.32;;;3.47;;
30707;SDS011;17458;48.958;8.284;2023-08-12T12:20:24;6.13;;;3.65;;
30707;SDS011;17458;48.958;8.284;2023-08-12T12:23:09;5.93;;;4.40;;
30707;SDS011;17458;48.958;8.284;2023-08-12T12:28:42;9.35;;;3.72;;
30707;SDS011;17458;48.958;8.284;2023-08-12T12:31:26;8.43;;;3.03;;
30707;SDS011;17458;48.958;8.284;2023-08-12T12:34:10;4.68;;;3.10;;
30707;SDS011;17458;48.958;8.284;2023-08-12T12:36:54;7.57;;;2.80;;
30707;SDS011;17458;48.958;8.284;2023-08-12T12:39:38;6.65;;;3.05;;
30707;SDS011;17458;48.958;8.284;2023-08-12T12:42:23;2.72;;;1.95;;
30707;SDS011;17458;48.958;8.284;2023-08-12T12:45:10;2.92;;;2.30;;
30707;SDS011;17458;48.958;8.284;2023-08-12T12:47:54;4.70;;;2.78;;
30707;SDS011;17458;48.958;8.284;2023-08-12T12:50:38;3.55;;;2.17;;
30707;SDS011;17458;48.958;8.284;2023-08-12T12:53:21;7.80;;;2.75;;
30707;SDS011;17458;48.958;8.284;2023-08-12T12:56:05;3.55;;;2.30;;
30707;SDS011;17458;48.958;8.284;2023-08-12T12:58:50;4.50;;;2.40;;
30707;SDS011;17458;48.958;8.284;2023-08-12T13:01:34;7.47;;;2.60;;
30707;SDS011;17458;48.958;8.284;2023-08-12T13:04:18;7.22;;;2.33;;
30707;SDS011;17458;48.958;8.284;2023-08-12T13:07:03;6.75;;;2.53;;
30707;SDS011;17458;48.958;8.284;2023-08-12T13:09:47;3.65;;;2.88;;
30707;SDS011;17458;48.958;8.284;2023-08-12T13:12:30;4.00;;;2.17;;
30707;SDS011;17458;48.958;8.284;2023-08-12T13:15:15;5.85;;;2.50;;
30707;SDS011;17458;48.958;8.284;2023-08-12T13:17:59;7.22;;;2.78;;
30707;SDS011;17458;48.958;8.284;2023-08-12T13:20:43;3.75;;;2.50;;
30707;SDS011;17458;48.958;8.284;2023-08-12T13:23:27;4.22;;;2.92;;
30707;SDS011;17458;48.958;8.284;2023-08-12T13:26:10;4.82;;;3.25;;
30707;SDS011;17458;48.958;8.284;2023-08-12T13:28:54;5.53;;;2.65;;
30707;SDS011;17458;48.958;8.284;2023-08-12T13:31:38;4.30;;;2.55;;
30707;SDS011;17458;48.958;8.284;2023-08-12T13:34:23;6.60;;;2.92;;
30707;SDS011;17458;48.958;8.284;2023-08-12T13:37:07;3.58;;;2.90;;
30707;SDS011;17458;48.958;8.284;2023-08-12T13:39:51;4.68;;;2.60;;
30707;SDS011;17458;48.958;8.284;2023-08-12T13:42:36;7.13;;;2.72;;
30707;SDS011;17458;48.958;8.284;2023-08-12T13:45:20;10.35;;;3.22;;
30707;SDS011;17458;48.958;8.284;2023-08-12T13:48:05;8.65;;;3.40;;
30707;SDS011;17458;48.958;8.284;2023-08-12T13:50:50;5.05;;;3.10;;
30707;SDS011;17458;48.958;8.284;2023-08-12T13:53:35;5.53;;;2.90;;
30707;SDS011;17458;48.958;8.284;2023-08-12T13:56:19;7.32;;;2.97;;
30707;SDS011;17458;48.958;8.284;2023-08-12T13:59:04;9.85;;;3.33;;
30707;SDS011;17458;48.958;8.284;2023-08-12T14:01:48;10.45;;;3.72;;
30707;SDS011;17458;48.958;8.284;2023-08-12T14:04:32;5.82;;;3.53;;
30707;SDS011;17458;48.958;8.284;2023-08-12T14:07:16;5.55;;;3.40;;
30707;SDS011;17458;48.958;8.284;2023-08-12T14:10:00;5.63;;;3.10;;
30707;SDS011;17458;48.958;8.284;2023-08-12T14:12:44;6.57;;;3.30;;
30707;SDS011;17458;48.958;8.284;2023-08-12T14:15:29;4.45;;;3.22;;
30707;SDS011;17458;48.958;8.284;2023-08-12T14:18:13;7.32;;;3.63;;
30707;SDS011;17458;48.958;8.284;2023-08-12T14:20:56;3.72;;;2.83;;
30707;SDS011;17458;48.958;8.284;2023-08-12T14:23:40;4.60;;;3.40;;
30707;SDS011;17458;48.958;8.284;2023-08-12T14:26:24;6.40;;;3.47;;
30707;SDS011;17458;48.958;8.284;2023-08-12T14:29:08;8.85;;;3.67;;
30707;SDS011;17458;48.958;8.284;2023-08-12T14:31:53;6.30;;;3.90;;
30707;SDS011;17458;48.958;8.284;2023-08-12T14:34:36;8.13;;;3.40;;
30707;SDS011;17458;48.958;8.284;2023-08-12T14:37:20;6.00;;;3.30;;
30707;SDS011;17458;48.958;8.284;2023-08-12T14:40:04;13.20;;;5.13;;
30707;SDS011;17458;48.958;8.284;2023-08-12T14:42:49;7.55;;;5.10;;
30707;SDS011;17458;48.958;8.284;2023-08-12T14:45:33;14.32;;;5.63;;
30707;SDS011;17458;48.958;8.284;2023-08-12T14:48:17;13.07;;;4.75;;
30707;SDS011;17458;48.958;8.284;2023-08-12T14:51:02;11.18;;;5.22;;
30707;SDS011;17458;48.958;8.284;2023-08-12T14:53:46;10.10;;;5.03;;
30707;SDS011;17458;48.958;8.284;2023-08-12T14:56:31;9.50;;;4.75;;
30707;SDS011;17458;48.958;8.284;2023-08-12T14:59:15;12.50;;;4.72;;
30707;SDS011;17458;48.958;8.284;2023-08-12T15:01:59;7.75;;;3.92;;
30707;SDS011;17458;48.958;8.284;2023-08-12T15:04:43;7.32;;;3.90;;
30707;SDS011;17458;48.958;8.284;2023-08-12T15:07:27;9.25;;;3.85;;
30707;SDS011;17458;48.958;8.284;2023-08-12T15:10:11;8.10;;;4.30;;
30707;SDS011;17458;48.958;8.284;2023-08-12T15:12:55;5.45;;;3.65;;
30707;SDS011;17458;48.958;8.284;2023-08-12T15:15:39;7.95;;;4.47;;
30707;SDS011;17458;48.958;8.284;2023-08-12T15:18:23;6.00;;;4.10;;
30707;SDS011;17458;48.958;8.284;2023-08-12T15:21:08;7.60;;;4.22;;
30707;SDS011;17458;48.958;8.284;2023-08-12T15:23:52;8.65;;;4.65;;
30707;SDS011;17458;48.958;8.284;2023-08-12T15:26:36;7.53;;;4.43;;
30707;SDS011;17458;48.958;8.284;2023-08-12T15:29:20;12.10;;;5.25;;
30707;SDS011;17458;48.958;8.284;2023-08-12T15:32:04;6.43;;;4.15;;
30707;SDS011;17458;48.958;8.284;2023-08-12T15:34:49;14.02;;;4.38;;
30707;SDS011;17458;48.958;8.284;2023-08-12T15:37:33;7.50;;;4.38;;
30707;SDS011;17458;48.958;8.284;2023-08-12T15:40:17;5.63;;;4.13;;
30707;SDS011;17458;48.958;8.284;2023-08-12T15:43:01;7.28;;;4.40;;
30707;SDS011;17458;48.958;8.284;2023-08-12T15:45:45;9.70;;;5.35;;
30707;SDS011;17458;48.958;8.284;2023-08-12T15:48:28;9.90;;;4.35;;
30707;SDS011;17458;48.958;8.284;2023-08-12T15:51:13;8.30;;;3.22;;
30707;SDS011;17458;48.958;8.284;2023-08-12T15:53:56;5.28;;;3.55;;
30707;SDS011;17458;48.958;8.284;2023-08-12T15:56:40;6.65;;;4.18;;
30707;SDS011;17458;48.958;8.284;2023-08-12T15:59:27;9.90;;;4.05;;
30707;SDS011;17458;48.958;8.284;2023-08-12T16:02:11;6.50;;;4.20;;
30707;SDS011;17458;48.958;8.284;2023-08-12T16:04:55;7.88;;;4.28;;
30707;SDS011;17458;48.958;8.284;2023-08-12T16:07:39;9.43;;;4.50;;
30707;SDS011;17458;48.958;8.284;2023-08-12T16:10:23;13.70;;;3.88;;
30707;SDS011;17458;48.958;8.284;2023-08-12T16:13:16;6.22;;;3.83;;
30707;SDS011;17458;48.958;8.284;2023-08-12T16:16:00;14.70;;;4.25;;
30707;SDS011;17458;48.958;8.284;2023-08-12T16:18:44;7.90;;;4.25;;
30707;SDS011;17458;48.958;8.284;2023-08-12T16:21:28;8.38;;;4.18;;
30707;SDS011;17458;48.958;8.284;2023-08-12T16:24:13;5.93;;;4.18;;
30707;SDS011;17458;48.958;8.284;2023-08-12T16:26:57;8.80;;;5.10;;
30707;SDS011;17458;48.958;8.284;2023-08-12T16:29:43;6.68;;;3.67;;
30707;SDS011;17458;48.958;8.284;2023-08-12T16:32:27;8.60;;;4.43;;
30707;SDS011;17458;48.958;8.284;2023-08-12T16:35:11;5.60;;;3.05;;